ADDS METAR Data INFO
IDs: Format: Raw Decoded Include TAF

Data at: 2303 UTC 21 Feb 2018

KABI 212252Z 34014KT 2SM -FZRA BR OVC005 M04/M04 A3031 RMK AO2 FZRAB2159 CIG 004V009 SLP278 P0000 I1008 T10391039
KABI 212202Z 33015KT 1 3/4SM R35R/6000VP6000FT -FZRA BR OVC006 M04/M04 A3030 RMK AO2 FZRAB2159 P0000 I1001 T10441044
KABI 212152Z 33015KT 2 1/2SM BR OVC006 M04/M04 A3030 RMK AO2 SLP274 I1001 T10441044
KABI 212052Z 35014KT 9SM OVC006 M03/M04 A3027 RMK AO2 SLP263 60009 I3002 T10331039 58002
KABI 211952Z 34019KT 7SM OVC005 M03/M03 A3026 RMK AO2 FZRAE30 SLP259 P0009 I1001 T10331033
KABI 211936Z 35016KT 4SM BR OVC005 M03/M03 A3025 RMK AO2 LTG DSNT NE FZRAE30 P0009 I1001 T10331033
KABI 211914Z 35019KT 5SM -FZRA BR OVC006 M03/M03 A3026 RMK AO2 P0009 I1000 T10281028
KABI 211906Z 35019G22KT 2SM R35R/4500VP6000FT -FZRA BR OVC006 M02/M03 A3027 RMK AO2 P0009 I1000 T10221028
KABI 211859Z 35017KT 1 3/4SM R35R/2800VP6000FT FZRA BR OVC006 M02/M02 A3026 RMK AO2 P0001 I1000 T10221022
KABI 211852Z 35017KT 3SM -FZRA BR OVC006 M02/M03 A3029 RMK AO2 UPB33E42FZRAB42 CIG 005V009 SLP269 P0000 I1001 T10221028
KABI 211848Z 35019KT 3SM -FZRA BR OVC006 M02/M02 A3028 RMK AO2 UPB33E42FZRAB42 P0000 I1000
KABI 211752Z 36012KT 4SM BR BKN006 OVC012 M02/M02 A3028 RMK AO2 LTG DSNT E AND SE FZRAE44 CIG 004V010 SLP265 P0007 60097 I1001 I6011 T10171017 11011 21033 51021
KABI 211750Z 36010KT 4SM BR BKN006 OVC012 M02/M02 A3028 RMK AO2 LTG DSNT SE FZRAE44 CIG 004V010 P0007 I1001
KABI 211737Z 36013KT 5SM -FZRA BR BKN008 OVC014 M01/M01 A3027 RMK AO2 LTG DSNT SE CIG 005V012 P0007 I1001 T10111011
KABI 211730Z 36011KT 3SM FZRA BR BKN007 OVC014 M01/M02 A3028 RMK AO2 LTG DSNT SE CIG 005V011 P0007 I1001 T10111017
KABI 211709Z 01011G22KT 3SM -FZRA BR BKN007 OVC013 M01/M01 A3026 RMK AO2 CIG 004V010 P0005 I1001 T10111011
KABI 211652Z 02010KT 2SM FZRA BR BKN007 OVC011 M01/M01 A3026 RMK AO2 CIG 004V008 SLP257 P0018 I1006 T10111011
KABI 211631Z 01015G19KT 3SM FZRA BR OVC008 M02/M02 A3029 RMK AO2 CIG 006V014 P0007 I1003 T10171022
KABI 211616Z 36012KT 5SM -FZRA BR BKN007 OVC012 M02/M02 A3027 RMK AO2 P0004 I1002 T10171022
KABI 211602Z 02015G24KT 3SM FZRA BR BKN007 BKN014 OVC080 M02/M02 A3024 RMK AO2 P0002 I1001 T10171022
KABI 211552Z 03017G23KT 4SM -FZRA BR OVC006 M03/M03 A3022 RMK AO2 LTG DSNT E AND SE AND W TSE03B09E33 PRESFR SLP243 P0030 I1002 T10281028
KABI 211545Z 01017G24KT 4SM FZRA BR BKN006 OVC045 M03/M03 A3025 RMK AO2 LTG DSNT E AND SE AND W TSE03B09E33 P0029 I1002 T10281028
KABI 211534Z 02014KT 3SM VCTS FZRA BR BKN006 BKN017 OVC038 M03/M03 A3027 RMK AO2 LTG DSNT E AND SE AND NW TSE03B09E33 P0026 I1000 T10281028
KABI 211531Z 01014G20KT 2 1/2SM TSFZRA BR BKN006 OVC036 M03/M03 A3027 RMK AO2 LTG DSNT ALQDS TSE03B09 P0025 I1000 T10281028
KABI 211520Z 03013G21KT 1 3/4SM TSFZRA BR FEW004 SCT019 OVC036 M03/M03 A3025 RMK AO2 LTG DSNT ALQDS TSE03B09 PRESFR P0019 I1000 T10281028
KABI 211452Z 35015KT 1 3/4SM R35R/4000V5500FT TSFZRA BR FEW006 BKN019 OVC024 M03/M04 A3030 RMK AO2 LTG DSNT ALQDS UPE30FZRAB30 TSB48 SLP270 P0024 60042 I1001 I3002 T10331039 53015 $
KABI 211447Z 35018KT 2SM R35R/4000V6000FT VCTS FZRA BR FEW006 BKN015 OVC021 M03/M04 A3029 RMK AO2 LTG DSNT ALQDS UPE30FZRAB30 P0021 I1001 $
KABI 211442Z 34014KT 1 1/2SM R35R/3500V6000FT VCTS FZRA BR SCT006 BKN017 OVC021 M03/M04 A3031 RMK AO2 LTG DSNT ALQDS UPE30FZRAB30 PRESRR P0020 I1001 T10331039 $
KABI 211436Z 34014KT 1SM R35R/3000V4500FT FZRA BR BKN006 OVC017 M03/M04 A3030 RMK AO2 LTG DSNT ALQDS UPE30FZRAB30 P0017 I1000 T10331039 $
KABI 211427Z 34014KT 1SM R35R/3000V4000FT UP BR BKN008 OVC017 M03/M04 A3029 RMK AO2 LTG DSNT ALQDS P0012 T10331039 $
KABI 211409Z 34018KT 3/4SM R35R/3500VP6000FT UP BR BKN014 OVC019 M03/M04 A3029 RMK AO2 LTG DSNT SE-W P0005 T10331039 $
KABI 211406Z 35016KT 1SM R35R/3500VP6000FT VCTS UP BR FEW008 OVC017 M03/M04 A3030 RMK AO2 LTG DSNT SE-W P0004 T10331039 $
KABI 211357Z 36014KT 2SM R35R/5500VP6000FT VCTS UP SCT009 SCT013 OVC018 M03/ A3029 RMK AO2 LTG DSNT SE AND S P0001 T1028 $
KABI 211352Z 35017KT 2SM R35R/5500VP6000FT VCTS UP BR BKN009 OVC013 M03/M04 A3028 RMK AO2 LTG DSNT SE AND S UPB01E25B51FZRAB25E51 TSB16E35 SLP265 TS S MOV N OCNL LTG P0018 I1001 T10331039 $
KABI 211344Z 35015KT 2 1/2SM VCTS FZRA BR OVC011 M03/M04 A3030 RMK AO2 LTG DSNT S UPB01E25FZRAB25 TSB16E35 TS S MOV N OCNL LTG P0014 I1001 T10331039 $
KABI 211341Z 36012KT 3SM VCTS FZRA BR OVC009 M03/M04 A3030 RMK AO2 LTG DSNT S UPB01E25FZRAB25 TSB16E35 CIG 008V013 TS S MOV N OCNL LTG P0013 I1001 T10331039 $
KABI 211331Z 35009KT 5SM TSFZRA BR OVC009 M03/M04 A3031 RMK AO2 LTG DSNT S AND SW UPB01E25FZRAB25 TSB16 CIG 008V012 TS S MOV N OCNL LTG P0009 I1001 T10331039 $
KABI 211322Z 02010G19KT 6SM TSUP BR OVC009 M03/M04 A3030 RMK AO2 LTG DSNT SE-W UPB01 TSB16 PRESRR TS S MOV N OCNL LTG P0007 I1001 T10331039 $
KABI 211252Z 03016G22KT 10SM OVC009 M03/ A3023 RMK AO2 LTG DSNT S UPB1157E10 TSE04 CIG 008V013 SLP246 P0000 T1033 $
KABI 211238Z 02012G24KT 10SM OVC009 M03/ A3023 RMK AO2 UPB1157E10 TSE04 P0000 T1033 $
KABI 210752Z 35017KT 10SM OVC006 M01/ A3023 RMK AO2 LTG DSNT W-N CIG 005V009 SLP232 T1006 $
KABI 210652Z 36019G22KT 8SM OVC005 00/ A3018 RMK AO2 LTG DSNT W-NE UPE05B29E50RAB0554E06 SLP214 P0000 T0000 $
KABI 210622Z 01015KT 9SM VCTS OVC005 01/ A3018 RMK AO2 LTG DSNT W UPE05RAB0554E06 P0000 T0006 $
KABI 210613Z 36015KT 8SM OVC005 01/ A3018 RMK AO2 LTG DSNT W UPE05RAB0554E06 P0000 T0006 $
KABI 210552Z 34014KT 7SM UP OVC004 01/ A3019 RMK AO2 LTG DSNT W RAE42UPB42 TSE22 PRESRR SLP216 P0022 60056 T0006 10017 20006 402390006 53020 $
KABI 201516Z 19015KT 10SM BKN014 BKN029 BKN049 19/18 A2986 RMK AO2 T01940178
KABI 201452Z 18014KT 10SM SCT014 BKN019 OVC055 19/18 A2985 RMK AO2 SLP089 T01940178 53018
KABI 201352Z 19012KT 10SM OVC011 18/18 A2982 RMK AO2 SLP078 T01830178
KABI 201252Z 16020G25KT 10SM OVC011 18/17 A2981 RMK AO2 LTG DSNT SE SLP073 T01830172
KABI 201152Z 16017G22KT 10SM OVC014 18/17 A2980 RMK AO2 PK WND 18029/1121 SLP070 T01830167 10200 20183 53013
KABI 201107Z 18017G22KT 10SM BKN019 BKN120 19/16 A2978 RMK AO2 LTG DSNT SE AND S T01890161